Time;durP1;ratioP1;P1;durP2;ratioP2;P2;SDS_P1;SDS_P2;PMS_P1;PMS_P2;Temp;Humidity;BMP_temperature;BMP_pressure;BME280_temperature;BME280_humidity;BME280_pressure;Samples;Min_cycle;Max_cycle;Signal;HPM_P1;HPM_P2
2022/10/09 00:01:13;;;;;;;5.78;5.13;;;;;;;10.42;85.12;99519.63;5039792;27;103312;-70
2022/10/09 00:03:43;;;;;;;7.28;4.40;;;;;;;10.65;85.18;99520.91;5040977;27;102646;-69
2022/10/09 00:06:14;;;;;;;4.67;4.07;;;;;;;10.93;84.22;99532.38;5022156;27;104209;-69
2022/10/09 00:08:43;;;;;;;4.75;4.25;;;;;;;10.73;84.76;99527.44;5040432;27;103325;-69
2022/10/09 00:11:15;;;;;;;5.70;4.10;;;;;;;10.96;83.75;99529.56;5037179;27;103249;-69
2022/10/09 00:13:44;;;;;;;7.43;4.80;;;;;;;10.44;85.29;99528.31;5040608;27;102727;-69
2022/10/09 00:16:13;;;;;;;8.87;5.07;;;;;;;9.70;90.11;99536.06;5038040;27;104228;-70
2022/10/09 00:18:42;;;;;;;5.07;4.15;;;;;;;10.34;89.77;99527.16;5037591;27;103605;-69
2022/10/09 00:21:18;;;;;;;4.45;3.67;;;;;;;10.64;87.34;99513.94;5037894;27;103260;-70
2022/10/09 00:23:49;;;;;;;3.80;3.22;;;;;;;10.96;85.14;99516.34;5037043;27;102927;-69
2022/10/09 00:26:18;;;;;;;5.97;4.00;;;;;;;11.14;83.36;99516.16;5037416;27;103955;-70
2022/10/09 00:28:48;;;;;;;5.68;4.35;;;;;;;11.18;80.96;99517.63;5036490;27;103742;-69
2022/10/09 00:31:16;;;;;;;5.03;4.40;;;;;;;11.05;80.06;99509.63;5038362;27;103244;-69
2022/10/09 00:33:45;;;;;;;8.82;5.80;;;;;;;10.36;80.96;99519.97;5034034;27;102666;-70
2022/10/09 00:36:15;;;;;;;6.67;5.57;;;;;;;10.37;81.84;99519.03;5021128;27;104001;-68
2022/10/09 00:38:44;;;;;;;5.93;4.40;;;;;;;10.65;81.64;99516.47;5029341;27;104516;-69
2022/10/09 00:41:15;;;;;;;6.90;4.50;;;;;;;10.65;80.93;99511.19;5038532;27;103609;-69
2022/10/09 00:43:46;;;;;;;6.13;4.20;;;;;;;10.65;81.02;99500.63;5038728;27;103749;-69
2022/10/09 00:46:24;;;;;;;7.63;4.82;;;;;;;10.50;81.81;99501.53;5044212;27;103600;-69
2022/10/09 00:48:59;;;;;;;6.43;4.30;;;;;;;10.27;84.10;99504.69;5041812;27;103379;-69
2022/10/09 00:51:28;;;;;;;6.28;4.32;;;;;;;10.09;86.35;99505.72;5022625;27;104493;-69
2022/10/09 00:53:58;;;;;;;4.23;3.40;;;;;;;10.33;86.53;99499.88;5040149;27;102659;-69
2022/10/09 00:56:27;;;;;;;3.42;3.08;;;;;;;10.67;84.33;99498.72;5041714;27;102938;-70
2022/10/09 00:58:57;;;;;;;4.30;3.90;;;;;;;10.79;82.41;99500.63;5028911;27;103704;-70
2022/10/09 01:01:25;;;;;;;6.28;4.72;;;;;;;10.26;81.52;99497.69;5037741;27;103072;-69
2022/10/09 01:03:53;;;;;;;4.82;4.32;;;;;;;10.44;81.15;99491.34;5043549;27;102888;-70
2022/10/09 01:06:31;;;;;;;5.88;4.65;;;;;;;10.53;79.36;99490.78;5042926;27;102739;-70
2022/10/09 01:09:07;;;;;;;8.10;5.60;;;;;;;9.85;81.90;99506.16;5037604;27;103371;-69
2022/10/09 01:11:46;;;;;;;6.88;5.00;;;;;;;9.63;84.39;99499.53;5042008;27;103310;-69
2022/10/09 01:14:20;;;;;;;5.22;4.13;;;;;;;10.10;83.28;99497.72;5039527;27;103065;-69
2022/10/09 01:16:56;;;;;;;6.35;4.07;;;;;;;10.25;81.63;99483.63;5043276;27;103012;-70
2022/10/09 01:19:40;;;;;;;5.37;3.90;;;;;;;10.38;81.16;99479.34;5040430;27;103562;-70
2022/10/09 01:22:25;;;;;;;5.82;4.20;;;;;;;10.37;80.11;99490.84;5042029;27;103263;-69
2022/10/09 01:24:59;;;;;;;5.47;4.15;;;;;;;10.42;80.48;99482.63;5021097;27;102648;-70
2022/10/09 01:27:30;;;;;;;3.63;3.33;;;;;;;10.48;80.49;99479.63;5037749;27;103864;-68
2022/10/09 01:30:01;;;;;;;4.73;3.37;;;;;;;10.54;79.84;99481.06;5038137;27;104387;-70
2022/10/09 01:32:33;;;;;;;4.32;3.70;;;;;;;10.59;78.82;99485.13;5039165;27;103824;-70
2022/10/09 01:35:03;;;;;;;5.50;4.07;;;;;;;10.35;77.48;99473.38;5040065;27;102658;-70
2022/10/09 01:37:34;;;;;;;4.38;3.88;;;;;;;10.43;78.29;99473.78;5023657;27;102999;-70
2022/10/09 01:40:03;;;;;;;4.88;4.30;;;;;;;9.90;81.05;99469.81;5039835;27;103873;-70
2022/10/09 01:42:32;;;;;;;6.00;4.40;;;;;;;9.80;81.16;99467.78;5040317;27;103501;-69
2022/10/09 01:45:03;;;;;;;3.45;2.95;;;;;;;10.18;80.80;99463.81;5021963;27;104229;-70
2022/10/09 01:47:30;;;;;;;3.33;3.03;;;;;;;10.38;79.47;99467.94;5042491;27;103633;-70
2022/10/09 01:50:04;;;;;;;5.22;3.90;;;;;;;10.23;77.27;99460.91;5027953;27;103938;-70
2022/10/09 01:52:41;;;;;;;5.10;4.60;;;;;;;9.43;80.80;99463.72;5041287;27;103266;-70
2022/10/09 01:55:24;;;;;;;4.13;3.72;;;;;;;9.82;80.98;99464.09;5039339;27;103032;-70
2022/10/09 01:57:58;;;;;;;4.25;3.75;;;;;;;10.00;79.40;99462.19;5043014;27;103028;-70
2022/10/09 02:00:28;;;;;;;6.07;4.80;;;;;;;9.96;78.38;99462.47;5040065;27;104029;-70
2022/10/09 02:02:57;;;;;;;6.43;4.75;;;;;;;9.10;81.95;99453.25;5038105;27;103260;-70
2022/10/09 02:05:30;;;;;;;6.30;5.28;;;;;;;9.07;83.28;99457.81;5041073;27;102730;-70
2022/10/09 02:07:58;;;;;;;5.18;4.63;;;;;;;9.05;83.93;99449.16;5040707;27;104428;-70
2022/10/09 02:10:27;;;;;;;4.18;3.55;;;;;;;9.38;85.75;99454.34;5033933;27;104241;-69
2022/10/09 02:12:59;;;;;;;7.20;4.70;;;;;;;9.72;83.17;99441.84;5024564;27;104313;-70
2022/10/09 02:15:31;;;;;;;7.93;5.33;;;;;;;9.01;86.12;99439.72;5043171;27;102922;-70
2022/10/09 02:18:05;;;;;;;4.88;4.40;;;;;;;9.34;86.29;99437.88;5042640;27;102667;-70
2022/10/09 02:20:38;;;;;;;4.88;4.10;;;;;;;9.69;84.48;99439.38;5041495;27;104353;-70
2022/10/09 02:23:08;;;;;;;8.85;5.57;;;;;;;9.26;80.45;99434.81;5054971;27;104105;-70
2022/10/09 02:25:36;;;;;;;6.87;5.10;;;;;;;9.03;84.33;99432.59;5042129;27;102924;-70
2022/10/09 02:28:05;;;;;;;5.03;4.00;;;;;;;9.47;82.99;99430.97;5043640;27;102677;-69
2022/10/09 02:30:39;;;;;;;5.30;4.40;;;;;;;9.71;81.57;99432.19;5041256;27;108100;-70
2022/10/09 02:33:09;;;;;;;5.65;4.53;;;;;;;9.72;79.50;99425.16;5040296;27;103264;-70
2022/10/09 02:35:38;;;;;;;5.03;4.22;;;;;;;9.75;79.67;99423.19;5026766;27;102779;-70
2022/10/09 02:38:05;;;;;;;5.45;4.70;;;;;;;9.71;78.83;99424.28;5023562;27;103679;-70
2022/10/09 02:40:35;;;;;;;6.32;5.07;;;;;;;9.69;79.04;99415.63;5043244;27;104437;-70
2022/10/09 02:43:04;;;;;;;7.15;4.80;;;;;;;9.68;79.22;99416.56;5040187;27;103525;-70
2022/10/09 02:45:32;;;;;;;5.35;4.70;;;;;;;9.74;78.66;99420.66;5043044;27;103142;-70
2022/10/09 02:48:00;;;;;;;5.95;4.70;;;;;;;9.73;77.98;99421.56;5040245;27;102721;-70
2022/10/09 02:50:27;;;;;;;6.47;5.00;;;;;;;9.62;77.92;99422.19;5041653;27;103169;-70
2022/10/09 02:52:55;;;;;;;6.00;5.00;;;;;;;9.31;80.00;99416.94;5040853;27;103218;-70
2022/10/09 02:55:23;;;;;;;8.43;4.57;;;;;;;9.44;79.34;99423.22;5041906;27;102641;-70
2022/10/09 02:57:51;;;;;;;6.57;5.10;;;;;;;9.47;79.64;99420.41;5043118;27;102640;-70
2022/10/09 03:00:20;;;;;;;7.90;6.60;;;;;;;8.86;80.85;99425.59;5022943;27;104358;-70
2022/10/09 03:02:48;;;;;;;7.00;5.90;;;;;;;9.22;80.50;99418.31;5047461;27;103573;-70
2022/10/09 03:05:16;;;;;;;7.10;6.05;;;;;;;9.39;79.79;99417.38;5040402;27;102592;-70
2022/10/09 03:07:50;;;;;;;9.52;6.70;;;;;;;9.18;79.43;99415.91;5038974;27;103890;-70
2022/10/09 03:10:18;;;;;;;7.93;6.67;;;;;;;8.96;81.43;99420.66;5025037;27;104197;-70
2022/10/09 03:12:47;;;;;;;8.52;6.35;;;;;;;9.02;81.19;99415.06;5039330;27;104049;-70
2022/10/09 03:15:15;;;;;;;5.07;4.57;;;;;;;9.35;81.47;99415.81;5021060;27;102637;-69
2022/10/09 03:17:44;;;;;;;5.60;5.03;;;;;;;9.51;80.08;99411.41;5042160;27;103498;-70
2022/10/09 03:20:12;;;;;;;7.43;6.00;;;;;;;9.29;79.99;99414.38;5021166;27;104409;-70
2022/10/09 03:22:40;;;;;;;8.55;6.00;;;;;;;9.22;80.96;99417.47;5022381;27;103423;-70
2022/10/09 03:25:09;;;;;;;10.15;7.72;;;;;;;9.00;80.80;99419.56;5041022;27;102590;-70
2022/10/09 03:27:37;;;;;;;8.13;6.93;;;;;;;9.03;81.68;99427.31;5039443;27;103089;-70
2022/10/09 03:30:08;;;;;;;9.67;7.50;;;;;;;8.85;80.23;99417.75;5039823;27;104147;-70
2022/10/09 03:32:38;;;;;;;7.53;6.53;;;;;;;7.99;86.78;99424.00;5037713;27;103422;-70
2022/10/09 03:35:08;;;;;;;5.97;5.37;;;;;;;8.37;87.33;99424.69;5039608;27;102615;-70
2022/10/09 03:37:38;;;;;;;4.65;4.25;;;;;;;8.91;84.90;99422.69;5040451;27;104190;-70
2022/10/09 03:40:07;;;;;;;6.18;5.57;;;;;;;8.66;83.06;99416.13;5024451;27;103392;-70
2022/10/09 03:42:34;;;;;;;7.30;5.70;;;;;;;8.61;84.24;99419.94;5023571;27;104268;-70
2022/10/09 03:45:03;;;;;;;5.53;4.70;;;;;;;8.98;83.37;99421.44;5041952;27;102627;-70
2022/10/09 03:47:31;;;;;;;6.97;6.28;;;;;;;8.91;82.66;99414.78;5043587;27;103705;-70
2022/10/09 03:49:59;;;;;;;7.63;6.38;;;;;;;8.94;81.55;99418.13;5039959;27;104029;-70
2022/10/09 03:52:28;;;;;;;8.85;6.32;;;;;;;9.10;81.32;99420.75;5042237;27;103281;-70
2022/10/09 03:54:56;;;;;;;12.47;7.50;;;;;;;8.67;81.03;99415.16;5042738;27;102684;-70
2022/10/09 03:57:24;;;;;;;6.97;6.27;;;;;;;8.92;81.09;99424.41;5039012;27;102812;-70
2022/10/09 03:59:51;;;;;;;6.97;5.90;;;;;;;8.63;82.13;99421.56;5041703;27;104135;-69
2022/10/09 04:02:19;;;;;;;4.63;4.22;;;;;;;8.68;83.18;99421.28;5026256;27;103911;-70
2022/10/09 04:04:47;;;;;;;6.88;6.07;;;;;;;8.35;82.23;99415.16;5040270;27;102743;-69
2022/10/09 04:07:14;;;;;;;6.38;5.03;;;;;;;8.52;83.45;99420.41;5041796;27;103435;-70
2022/10/09 04:09:46;;;;;;;4.75;4.30;;;;;;;8.83;82.30;99422.25;5045200;27;105053;-70
2022/10/09 04:12:14;;;;;;;6.83;5.07;;;;;;;8.48;80.48;99422.34;5037180;27;103357;-70
2022/10/09 04:14:42;;;;;;;5.32;4.82;;;;;;;8.54;81.74;99424.66;5037013;27;102633;-70
2022/10/09 04:17:09;;;;;;;5.30;4.80;;;;;;;8.32;82.85;99424.09;5037407;27;104267;-70
2022/10/09 04:19:37;;;;;;;7.18;5.40;;;;;;;8.45;81.91;99419.03;5021094;27;103929;-70
2022/10/09 04:22:05;;;;;;;5.45;4.57;;;;;;;8.31;81.78;99419.75;5026693;27;104132;-70
2022/10/09 04:24:33;;;;;;;3.88;3.47;;;;;;;8.66;81.93;99418.75;5038539;27;102623;-70
2022/10/09 04:27:02;;;;;;;3.78;3.47;;;;;;;8.84;80.76;99418.72;5042222;27;103880;-70
2022/10/09 04:29:29;;;;;;;4.07;3.63;;;;;;;8.98;80.28;99430.19;5034861;27;103001;-70
2022/10/09 04:31:57;;;;;;;6.65;5.35;;;;;;;8.93;78.44;99420.81;5039591;27;103238;-70
2022/10/09 04:34:25;;;;;;;7.72;5.78;;;;;;;8.51;79.62;99419.56;5038963;27;102625;-70
2022/10/09 04:36:53;;;;;;;6.78;6.03;;;;;;;8.33;81.24;99423.16;5039164;27;102729;-70
2022/10/09 04:39:23;;;;;;;6.65;5.38;;;;;;;8.34;81.62;99416.94;5039111;27;103749;-70
2022/10/09 04:41:50;;;;;;;6.07;5.10;;;;;;;8.59;80.95;99422.63;5039513;27;103076;-70
2022/10/09 04:44:22;;;;;;;7.22;5.40;;;;;;;8.67;79.86;99414.34;5032803;27;102666;-70
2022/10/09 04:46:50;;;;;;;4.65;4.25;;;;;;;8.80;79.72;99415.38;5041987;27;102687;-70
2022/10/09 04:49:18;;;;;;;5.55;4.75;;;;;;;8.86;78.89;99419.47;5036344;27;103307;-71
2022/10/09 04:51:46;;;;;;;6.82;6.00;;;;;;;8.72;77.70;99417.59;5036903;27;102589;-69
2022/10/09 04:54:14;;;;;;;8.55;6.70;;;;;;;8.47;78.45;99415.41;5039105;27;102685;-69
2022/10/09 04:56:41;;;;;;;7.18;5.60;;;;;;;8.35;81.42;99410.75;5039081;27;104355;-70
2022/10/09 04:59:09;;;;;;;7.10;6.00;;;;;;;8.42;80.34;99412.13;5021279;27;104239;-70
2022/10/09 05:01:38;;;;;;;5.90;5.40;;;;;;;8.37;80.68;99410.66;5041605;27;103334;-69
2022/10/09 05:04:06;;;;;;;5.90;4.80;;;;;;;8.23;81.33;99408.72;5036110;27;102900;-66
2022/10/09 05:06:34;;;;;;;5.20;4.70;;;;;;;8.47;80.65;99412.75;5021337;27;102690;-68
2022/10/09 05:09:03;;;;;;;6.50;5.80;;;;;;;8.03;81.51;99411.50;5037386;27;104750;-68
2022/10/09 05:11:30;;;;;;;5.43;4.82;;;;;;;8.36;81.28;99409.00;5037736;27;103226;-67
2022/10/09 05:14:00;;;;;;;7.20;6.18;;;;;;;7.85;81.80;99420.34;5040954;27;102800;-69
2022/10/09 05:16:30;;;;;;;6.65;5.63;;;;;;;7.59;84.59;99422.50;5038615;27;103087;-71
2022/10/09 05:18:59;;;;;;;6.10;5.32;;;;;;;7.79;84.05;99418.03;5038798;27;104582;-69
2022/10/09 05:21:28;;;;;;;4.47;4.07;;;;;;;7.97;82.95;99409.22;5036537;27;103763;-69
2022/10/09 05:23:56;;;;;;;3.50;3.20;;;;;;;8.33;82.57;99420.53;5050232;27;103596;-69
2022/10/09 05:26:25;;;;;;;4.27;3.67;;;;;;;8.46;81.77;99420.72;5039261;27;104115;-68
2022/10/09 05:28:53;;;;;;;4.90;4.03;;;;;;;8.52;80.56;99410.72;5039668;27;103609;-67
2022/10/09 05:31:23;;;;;;;5.72;5.15;;;;;;;8.49;80.02;99410.88;5041828;27;103383;-66
2022/10/09 05:33:51;;;;;;;5.97;5.38;;;;;;;8.11;80.52;99415.47;5041834;27;102664;-64
2022/10/09 05:36:20;;;;;;;5.07;4.57;;;;;;;8.35;81.14;99417.81;5044264;27;102786;-67
2022/10/09 05:38:48;;;;;;;6.15;4.70;;;;;;;8.32;80.99;99410.91;5040993;27;104153;-65
2022/10/09 05:41:18;;;;;;;4.05;3.75;;;;;;;8.47;80.91;99411.91;5044317;27;103273;-65
2022/10/09 05:43:47;;;;;;;3.83;3.47;;;;;;;8.48;80.02;99419.72;5041711;27;102588;-65
2022/10/09 05:46:17;;;;;;;3.72;3.25;;;;;;;8.43;80.75;99416.47;5045167;27;102604;-65
2022/10/09 05:48:47;;;;;;;3.90;3.60;;;;;;;8.43;80.40;99418.25;5042233;27;103905;-66
2022/10/09 05:51:17;;;;;;;6.75;5.22;;;;;;;8.45;79.53;99409.34;5040700;27;103401;-66
2022/10/09 05:53:47;;;;;;;7.15;5.80;;;;;;;7.77;81.94;99417.25;5045441;27;102724;-66
2022/10/09 05:56:17;;;;;;;5.15;4.65;;;;;;;8.07;82.15;99402.56;5042328;27;102913;-65
2022/10/09 05:58:50;;;;;;;6.10;5.50;;;;;;;8.26;80.51;99413.84;5042499;27;103267;-66
2022/10/09 06:01:19;;;;;;;5.93;4.82;;;;;;;8.17;80.35;99409.88;5039982;27;103221;-65
2022/10/09 06:03:49;;;;;;;7.03;5.25;;;;;;;8.12;79.17;99411.06;5036182;27;103091;-65
2022/10/09 06:06:19;;;;;;;5.40;4.90;;;;;;;8.03;80.30;99412.38;5036174;27;102878;-65
2022/10/09 06:08:49;;;;;;;5.35;4.82;;;;;;;7.87;82.41;99411.44;5023819;27;104247;-65
2022/10/09 06:11:19;;;;;;;6.10;5.10;;;;;;;8.20;81.60;99411.50;5038646;27;103410;-65
2022/10/09 06:13:49;;;;;;;7.20;5.20;;;;;;;8.33;80.32;99411.78;5043159;27;102641;-65
2022/10/09 06:16:17;;;;;;;5.67;4.67;;;;;;;8.43;80.43;99405.09;5039417;27;103973;-65
2022/10/09 06:18:47;;;;;;;3.90;3.60;;;;;;;8.67;80.27;99412.53;5037376;27;103750;-65
2022/10/09 06:21:16;;;;;;;4.90;4.37;;;;;;;8.80;79.64;99414.53;5041271;27;103986;-65
2022/10/09 06:23:44;;;;;;;3.90;3.55;;;;;;;8.95;79.10;99421.63;5038305;27;103112;-65
2022/10/09 06:26:14;;;;;;;4.43;3.65;;;;;;;9.06;78.92;99420.09;5040166;27;102705;-64
2022/10/09 06:28:43;;;;;;;4.03;3.63;;;;;;;9.15;78.29;99416.94;5039914;27;103555;-65
2022/10/09 06:31:13;;;;;;;5.73;5.17;;;;;;;9.12;78.51;99417.09;5039988;27;103367;-64
2022/10/09 06:33:43;;;;;;;4.53;3.97;;;;;;;9.25;78.49;99419.91;5039806;27;102863;-64
2022/10/09 06:36:13;;;;;;;4.57;4.18;;;;;;;9.37;77.82;99421.03;5037204;27;102740;-65
2022/10/09 06:38:43;;;;;;;4.30;3.90;;;;;;;9.44;77.41;99423.22;5038454;27;103315;-67
2022/10/09 06:41:14;;;;;;;4.03;3.67;;;;;;;9.57;77.19;99421.59;5020094;27;103454;-67
2022/10/09 06:43:43;;;;;;;4.00;3.60;;;;;;;9.68;76.85;99415.72;5036790;27;102663;-67
2022/10/09 06:46:13;;;;;;;3.78;3.47;;;;;;;9.80;76.98;99415.84;5042528;27;102886;-68
2022/10/09 06:48:41;;;;;;;6.87;5.30;;;;;;;9.79;76.86;99419.44;5040119;27;103297;-67
2022/10/09 06:51:11;;;;;;;7.38;5.07;;;;;;;9.87;77.45;99421.63;5036170;27;103298;-66
2022/10/09 06:53:41;;;;;;;3.97;3.63;;;;;;;10.14;77.74;99414.75;5038778;27;103110;-66
2022/10/09 06:56:10;;;;;;;6.15;5.10;;;;;;;10.24;77.11;99420.34;5025228;27;104165;-64
2022/10/09 06:58:40;;;;;;;5.50;4.80;;;;;;;10.48;77.71;99417.09;5037060;27;103310;-64
2022/10/09 07:01:09;;;;;;;5.47;4.57;;;;;;;10.77;77.20;99415.31;5037458;27;104130;-64
2022/10/09 07:03:39;;;;;;;5.53;4.60;;;;;;;11.06;76.57;99424.91;5044960;27;103290;-64
2022/10/09 07:06:09;;;;;;;5.40;4.60;;;;;;;11.36;76.16;99418.63;5041664;27;104800;-64
2022/10/09 07:08:38;;;;;;;5.22;4.70;;;;;;;11.57;75.71;99422.53;5040242;27;103678;-65
2022/10/09 07:11:11;;;;;;;5.35;4.40;;;;;;;11.76;75.67;99427.50;5041115;27;103540;-64
2022/10/09 07:13:40;;;;;;;5.70;4.32;;;;;;;12.01;75.74;99425.75;5040751;27;102703;-64
2022/10/09 07:16:08;;;;;;;3.95;3.65;;;;;;;12.34;74.62;99419.16;5039209;27;103062;-65
2022/10/09 07:18:37;;;;;;;4.28;3.88;;;;;;;12.66;74.32;99425.72;5041117;27;103388;-65
2022/10/09 07:21:07;;;;;;;6.88;4.78;;;;;;;12.70;73.47;99421.94;5042162;27;103269;-64
2022/10/09 07:23:35;;;;;;;4.78;4.22;;;;;;;13.05;72.97;99424.75;5039315;27;103201;-64
2022/10/09 07:26:10;;;;;;;4.43;4.03;;;;;;;13.47;72.39;99418.22;5039716;27;103624;-65
2022/10/09 07:28:38;;;;;;;5.38;4.72;;;;;;;13.25;72.45;99419.75;5038411;27;104489;-65
2022/10/09 07:31:10;;;;;;;5.40;4.90;;;;;;;13.18;73.65;99425.59;5041710;27;103008;-64
2022/10/09 07:33:38;;;;;;;6.28;4.45;;;;;;;13.06;74.74;99429.09;5042021;27;102940;-65
2022/10/09 07:36:07;;;;;;;5.72;4.30;;;;;;;12.54;76.54;99423.94;5040130;27;102772;-65
2022/10/09 07:38:35;;;;;;;5.80;4.18;;;;;;;13.29;73.74;99426.53;5037886;27;103320;-65
2022/10/09 07:41:05;;;;;;;5.95;4.78;;;;;;;12.70;75.18;99422.78;5038817;27;103298;-65
2022/10/09 07:43:34;;;;;;;6.88;3.97;;;;;;;13.08;73.21;99412.13;5039200;27;102585;-65
2022/10/09 07:46:04;;;;;;;4.65;3.90;;;;;;;12.89;74.28;99424.97;5038097;27;103919;-64
2022/10/09 07:48:34;;;;;;;6.80;4.50;;;;;;;12.60;73.19;99418.22;5023285;27;104185;-64
2022/10/09 07:51:08;;;;;;;6.10;4.70;;;;;;;12.71;74.22;99420.97;5042362;27;103477;-64
2022/10/09 07:53:36;;;;;;;4.50;3.87;;;;;;;13.51;74.71;99414.34;5040536;27;102680;-64
2022/10/09 07:56:05;;;;;;;5.97;4.10;;;;;;;14.15;72.46;99411.25;5036651;27;103918;-65
2022/10/09 07:58:33;;;;;;;6.73;4.20;;;;;;;12.83;73.39;99412.16;5036963;27;103312;-64
2022/10/09 08:01:05;;;;;;;6.63;3.90;;;;;;;13.27;72.89;99412.53;5039713;27;103416;-64
2022/10/09 08:03:36;;;;;;;5.22;4.03;;;;;;;13.30;73.00;99416.78;5041661;27;102571;-64
2022/10/09 08:06:04;;;;;;;4.47;3.73;;;;;;;13.01;75.79;99415.31;5039288;27;103525;-65
2022/10/09 08:08:32;;;;;;;5.67;4.17;;;;;;;13.49;73.21;99400.34;5021664;27;104440;-65
2022/10/09 08:10:59;;;;;;;5.05;3.78;;;;;;;13.79;72.13;99411.38;5040269;27;103294;-65
2022/10/09 08:13:30;;;;;;;6.03;4.28;;;;;;;13.46;71.49;99406.75;5038672;27;102591;-65
2022/10/09 08:15:58;;;;;;;6.70;3.97;;;;;;;12.98;71.98;99408.44;5039414;27;102629;-65
2022/10/09 08:18:26;;;;;;;5.78;4.20;;;;;;;12.53;74.92;99414.28;5027485;27;103288;-65
2022/10/09 08:20:59;;;;;;;6.00;4.25;;;;;;;13.61;71.33;99410.09;5033143;27;103203;-65
2022/10/09 08:23:27;;;;;;;5.60;3.80;;;;;;;14.60;70.42;99400.75;5040490;27;102704;-65
2022/10/09 08:25:55;;;;;;;6.03;3.60;;;;;;;15.36;68.26;99406.19;5040661;27;104059;-65
2022/10/09 08:28:23;;;;;;;4.40;3.30;;;;;;;15.44;67.33;99395.75;5039845;27;103316;-66
2022/10/09 08:30:51;;;;;;;5.13;3.67;;;;;;;15.89;67.25;99393.81;5039032;27;103356;-64
2022/10/09 08:33:20;;;;;;;4.55;3.58;;;;;;;15.60;65.68;99394.44;5041608;27;102980;-65
2022/10/09 08:35:49;;;;;;;5.93;3.78;;;;;;;15.45;65.92;99389.47;5029411;27;105390;-65
2022/10/09 08:38:18;;;;;;;4.25;3.80;;;;;;;16.12;65.77;99390.09;5037515;27;103346;-65
2022/10/09 08:41:09;;;;;;;4.07;3.33;;;;;;;16.85;65.10;99390.00;5019362;27;103719;-65
2022/10/09 08:43:42;;;;;;;5.93;3.55;;;;;;;15.11;64.23;99380.69;5040755;27;102725;-65
2022/10/09 08:46:17;;;;;;;5.40;3.22;;;;;;;15.64;66.71;99381.69;5022119;27;103181;-64
2022/10/09 08:48:49;;;;;;;4.28;3.33;;;;;;;17.07;60.25;99383.63;5039844;27;103671;-65
2022/10/09 08:51:21;;;;;;;5.55;3.85;;;;;;;16.35;61.59;99386.31;5024871;27;104367;-64
2022/10/09 08:53:58;;;;;;;4.80;3.28;;;;;;;16.57;62.28;99380.88;5039400;27;102592;-64
2022/10/09 08:56:27;;;;;;;4.72;3.33;;;;;;;16.26;61.45;99376.44;5028833;27;104062;-63
2022/10/09 08:58:56;;;;;;;5.05;3.08;;;;;;;16.97;62.05;99372.91;5035099;27;104014;-64
2022/10/09 09:01:33;;;;;;;4.97;3.30;;;;;;;17.05;57.86;99378.44;5038175;27;103257;-65
2022/10/09 09:04:22;;;;;;;6.00;3.50;;;;;;;17.16;61.53;99375.66;5042154;27;102669;-64
2022/10/09 09:07:01;;;;;;;4.72;3.42;;;;;;;16.82;60.32;99368.91;5022664;27;102887;-65
2022/10/09 09:09:42;;;;;;;4.45;2.85;;;;;;;18.08;57.47;99357.50;5036313;27;103313;-66
2022/10/09 09:12:18;;;;;;;3.83;2.78;;;;;;;18.34;57.32;99356.75;5028561;27;104175;-65
2022/10/09 09:14:59;;;;;;;3.25;2.60;;;;;;;18.76;55.72;99349.19;5042795;27;102601;-66
2022/10/09 09:17:35;;;;;;;3.60;2.20;;;;;;;18.69;55.46;99350.78;5040168;27;102624;-66
2022/10/09 09:20:10;;;;;;;3.53;2.67;;;;;;;18.25;53.80;99343.38;5036339;27;104937;-66
2022/10/09 09:22:43;;;;;;;6.22;3.00;;;;;;;16.79;59.08;99347.84;5042643;27;103167;-67
2022/10/09 09:25:22;;;;;;;4.13;2.60;;;;;;;17.90;55.78;99342.19;5028154;27;103332;-65
2022/10/09 09:27:52;;;;;;;3.80;2.42;;;;;;;18.94;54.16;99339.41;5039467;27;102752;-68
2022/10/09 09:30:24;;;;;;;3.72;2.30;;;;;;;19.02;53.16;99334.16;5037735;27;103370;-69
2022/10/09 09:33:00;;;;;;;3.75;2.25;;;;;;;19.12;52.16;99331.41;5041708;27;103337;-70
2022/10/09 09:35:36;;;;;;;5.00;2.55;;;;;;;18.56;52.00;99331.50;5027035;27;102776;-70
2022/10/09 09:38:04;;;;;;;4.78;2.47;;;;;;;18.06;52.80;99335.41;5041212;27;102751;-68
2022/10/09 09:40:34;;;;;;;5.03;2.10;;;;;;;19.14;51.12;99331.28;5044235;27;104491;-67
2022/10/09 09:43:16;;;;;;;2.85;1.80;;;;;;;18.93;50.97;99327.00;5023510;27;104301;-68
2022/10/09 09:45:45;;;;;;;4.13;2.25;;;;;;;17.34;52.52;99328.63;5040929;27;102712;-67
2022/10/09 09:48:17;;;;;;;5.53;2.00;;;;;;;18.83;51.98;99309.31;5028809;27;103814;-69
2022/10/09 09:50:45;;;;;;;3.60;1.80;;;;;;;19.02;50.98;99319.91;5044799;27;103276;-66
2022/10/09 09:53:36;;;;;;;4.15;1.85;;;;;;;18.87;48.98;99306.16;5041196;27;103201;-69
2022/10/09 09:56:06;;;;;;;4.20;2.17;;;;;;;19.21;48.82;99308.22;5041625;27;103180;-69
2022/10/09 09:58:38;;;;;;;3.17;1.90;;;;;;;18.89;48.47;99306.84;5022596;27;104575;-69
2022/10/09 10:01:07;;;;;;;2.47;1.85;;;;;;;19.31;50.05;99299.13;5039313;27;103632;-69
2022/10/09 10:03:36;;;;;;;3.70;2.10;;;;;;;18.66;48.79;99297.56;5023873;27;103192;-67
2022/10/09 10:06:04;;;;;;;3.97;1.80;;;;;;;18.96;49.64;99293.72;5043533;27;102899;-67
2022/10/09 10:08:34;;;;;;;3.83;1.80;;;;;;;19.04;48.62;99285.78;5042557;27;103943;-67
2022/10/09 10:11:05;;;;;;;5.22;1.77;;;;;;;18.68;49.53;99281.34;5025224;27;104394;-66
2022/10/09 10:13:37;;;;;;;3.73;1.83;;;;;;;18.56;50.39;99277.16;5041539;27;103528;-67
2022/10/09 10:16:08;;;;;;;3.88;1.90;;;;;;;19.53;49.10;99274.63;5042433;27;102983;-67
2022/10/09 10:18:41;;;;;;;2.83;1.90;;;;;;;19.06;49.20;99273.06;5042041;27;103119;-67
2022/10/09 10:21:12;;;;;;;2.78;1.75;;;;;;;19.31;48.05;99272.34;5041103;27;104163;-67
2022/10/09 10:23:44;;;;;;;2.50;1.53;;;;;;;19.80;47.74;99262.94;5017818;27;104247;-66
2022/10/09 10:26:24;;;;;;;2.53;1.67;;;;;;;19.74;47.51;99258.22;5038295;27;102577;-66
2022/10/09 10:28:59;;;;;;;2.35;1.50;;;;;;;19.80;46.93;99257.59;5020969;27;104236;-67
2022/10/09 10:31:38;;;;;;;3.03;1.77;;;;;;;19.91;47.94;99254.66;5019386;27;104400;-67
2022/10/09 10:34:14;;;;;;;2.13;1.70;;;;;;;20.34;46.36;99255.63;5025534;27;104298;-67
2022/10/09 10:36:42;;;;;;;2.10;1.60;;;;;;;19.93;46.38;99246.47;5038886;27;103513;-67
2022/10/09 10:39:20;;;;;;;1.98;1.30;;;;;;;19.82;46.84;99250.22;5022132;27;104085;-67
2022/10/09 10:41:51;;;;;;;2.70;1.70;;;;;;;19.79;46.60;99242.50;5038369;27;103294;-66
2022/10/09 10:44:35;;;;;;;3.97;1.80;;;;;;;20.06;46.19;99245.06;5031978;27;103243;-66
2022/10/09 10:47:10;;;;;;;2.88;1.60;;;;;;;19.71;46.95;99241.59;5029620;27;104326;-67
2022/10/09 10:49:38;;;;;;;2.38;1.83;;;;;;;20.17;45.98;99233.22;5020638;27;102763;-68
2022/10/09 10:52:18;;;;;;;3.57;1.90;;;;;;;19.79;46.59;99236.31;5020488;27;104683;-68
2022/10/09 10:54:53;;;;;;;3.90;1.77;;;;;;;20.22;45.61;99236.25;5037623;27;104333;-67
2022/10/09 10:57:29;;;;;;;3.92;1.88;;;;;;;20.67;45.91;99230.63;5038592;27;102665;-68
2022/10/09 11:00:05;;;;;;;1.92;1.48;;;;;;;20.03;45.77;99233.78;5032496;27;104352;-68
2022/10/09 11:02:48;;;;;;;3.33;1.70;;;;;;;19.89;46.27;99234.38;5023701;27;104354;-67
2022/10/09 11:05:26;;;;;;;3.45;1.60;;;;;;;20.41;45.62;99221.78;5039634;27;103171;-67
2022/10/09 11:08:29;;;;;;;3.45;1.67;;;;;;;20.83;45.33;99208.38;5017145;27;103059;-68
2022/10/09 11:11:05;;;;;;;2.45;1.50;;;;;;;20.64;44.18;99212.16;5012801;27;102844;-67
2022/10/09 11:13:39;;;;;;;2.23;1.30;;;;;;;20.95;44.21;99199.84;5007058;27;103392;-67
2022/10/09 11:16:23;;;;;;;3.40;1.60;;;;;;;21.26;44.64;99195.56;5031256;27;103225;-68
2022/10/09 11:19:04;;;;;;;3.17;1.60;;;;;;;21.60;44.52;99198.09;5027041;27;103077;-67
2022/10/09 11:21:47;;;;;;;3.47;1.60;;;;;;;21.06;43.93;99188.78;5025258;27;102837;-67
2022/10/09 11:24:28;;;;;;;2.50;1.47;;;;;;;20.93;43.94;99192.97;5024415;27;103997;-66
2022/10/09 11:27:06;;;;;;;2.40;1.23;;;;;;;21.17;44.00;99185.81;5027947;27;103507;-67
2022/10/09 11:29:39;;;;;;;5.63;1.83;;;;;;;19.98;46.25;99186.00;5039590;27;102963;-66
2022/10/09 11:32:15;;;;;;;2.60;1.45;;;;;;;21.13;43.34;99176.44;5043420;27;102728;-64
2022/10/09 11:34:51;;;;;;;1.80;1.10;;;;;;;21.55;41.91;99173.56;5042959;27;104372;-65
2022/10/09 11:37:23;;;;;;;4.75;1.60;;;;;;;20.57;43.81;99162.84;5039513;27;105753;-64
2022/10/09 11:39:51;;;;;;;3.40;1.90;;;;;;;20.65;44.70;99157.47;5039667;27;102860;-66
2022/10/09 11:42:23;;;;;;;3.13;1.87;;;;;;;20.54;44.63;99157.78;5039533;27;103696;-66
2022/10/09 11:45:02;;;;;;;2.07;1.30;;;;;;;20.63;44.08;99163.00;5039004;27;103300;-65
2022/10/09 11:47:38;;;;;;;3.15;1.33;;;;;;;21.54;42.10;99157.59;5037528;27;103208;-68